Sid Moller — WDF9421 — position and weather

sailwx.info

Track history (hours):
 
Tides and Currents Weather Stations Pressure Air Temp Water Temp Dewpoint Dewpoint Depression Visibility Wind Speed Wind Dir Waves Ship Positions

Sid Moller

Owner: Genesis Marine, LLC, Houston, TX. More information available from US FCC via Universal Licensing System and Coast Guard Vessel Documentation Center.

Last reported at 2017-Mar-27 00:24 UTC. Time now 2017-Mar-27 00:42 UTC.
Position N 29°44' W 095°03'.

Length 26 m; draft 3 m.

Type: Ship (hazmat cat A). MMSI: 367504980.

Date/timePositionNaut miles runAvg speedWind from/ knotsBaromVisibWave heightAir tempDewpointWater temp
2017-Mar-27 00:24N 29°44' W 095°03'0 0.0
2017-Mar-26 21:33N 29°44' W 095°03'0 0.0
2017-Mar-26 20:30N 29°44' W 095°03'0 0.0
2017-Mar-26 19:31N 29°44' W 095°03'0 0.0
2017-Mar-26 18:31N 29°44' W 095°03'0 0.0
2017-Mar-26 17:28N 29°44' W 095°03'0 0.0
2017-Mar-26 16:31N 29°44' W 095°03'0 0.0
2017-Mar-26 15:24N 29°44' W 095°03'0 0.0
2017-Mar-26 14:21N 29°44' W 095°03'0 0.0
2017-Mar-26 13:30N 29°44' W 095°03'0 0.0
2017-Mar-26 11:19N 29°44' W 095°03'0 0.5
2017-Mar-26 10:32N 29°44' W 095°03'3 3.5
2017-Mar-26 09:33N 29°42' W 094°60'5 5.0
2017-Mar-26 08:34N 29°37' W 094°57'5 5.1
2017-Mar-26 07:34N 29°33' W 094°54'5 5.0
2017-Mar-26 06:34N 29°29' W 094°51'  
2017-Mar-22 05:15N 30°04' W 093°41'2 2.5
2017-Mar-22 04:32N 30°04' W 093°39'4 4.3
2017-Mar-22 03:33N 30°04' W 093°34'4 4.0
2017-Mar-22 02:34N 30°04' W 093°29'4 4.1
2017-Mar-22 01:33N 30°04' W 093°25'4 3.7
2017-Mar-22 00:34N 30°04' W 093°21'1 0.7
2017-Mar-21 23:34N 30°05' W 093°20'0 0.1
2017-Mar-21 22:34N 30°05' W 093°20'0 0.0
2017-Mar-21 21:34N 30°05' W 093°20'0 0.0
2017-Mar-21 20:34N 30°05' W 093°20'0 0.0
2017-Mar-21 19:34N 30°05' W 093°20'0 0.0
2017-Mar-21 18:34N 30°05' W 093°20'0 0.0
2017-Mar-21 17:34N 30°05' W 093°20'0 0.0
2017-Mar-21 16:34N 30°05' W 093°20'0 0.0
2017-Mar-21 15:34N 30°05' W 093°20'0 0.0
2017-Mar-21 14:34N 30°05' W 093°20'0 0.0
2017-Mar-21 13:33N 30°05' W 093°20'0 0.0
2017-Mar-21 12:34N 30°05' W 093°20'0 0.0
2017-Mar-21 11:33N 30°05' W 093°20'0 0.0
2017-Mar-21 10:34N 30°05' W 093°20'0 0.0
2017-Mar-21 09:34N 30°05' W 093°20'0 0.0
2017-Mar-21 08:33N 30°05' W 093°20'0 0.0
2017-Mar-21 07:34N 30°05' W 093°20'0 0.0
2017-Mar-21 06:34N 30°05' W 093°20'0 0.0
2017-Mar-21 05:34N 30°05' W 093°20'0 0.0
2017-Mar-21 04:34N 30°05' W 093°20'0 0.0
2017-Mar-21 03:34N 30°05' W 093°20'0 0.0
2017-Mar-21 02:34N 30°05' W 093°20'0 0.0
2017-Mar-21 01:34N 30°05' W 093°20'0 0.0
2017-Mar-21 00:34N 30°05' W 093°20'0 0.0
2017-Mar-20 23:33N 30°05' W 093°20'0 0.0
2017-Mar-20 22:34N 30°05' W 093°20'1 1.4
2017-Mar-20 21:33N 30°06' W 093°20'4 3.6
2017-Mar-20 20:34N 30°10' W 093°19'2 2.1
2017-Mar-20 19:34N 30°08' W 093°20'3 2.9
2017-Mar-20 18:34N 30°05' W 093°20'0 0.1
2017-Mar-20 17:34N 30°05' W 093°20'0 0.0
2017-Mar-20 16:34N 30°05' W 093°20'0 0.0
2017-Mar-20 15:34N 30°05' W 093°20'0 0.0
2017-Mar-20 14:34N 30°05' W 093°20'0 0.0
2017-Mar-20 13:34N 30°05' W 093°20'0 0.0
2017-Mar-20 12:34N 30°05' W 093°20'0 0.0
2017-Mar-20 11:33N 30°05' W 093°20'0 0.0
2017-Mar-20 10:34N 30°05' W 093°20'0 0.0
2017-Mar-20 09:33N 30°05' W 093°20'0 0.0
2017-Mar-20 08:34N 30°05' W 093°20'0 0.0
2017-Mar-20 07:34N 30°05' W 093°20'0 0.0
2017-Mar-20 06:34N 30°05' W 093°20'0 0.0
2017-Mar-20 05:33N 30°05' W 093°20'2 2.2
2017-Mar-20 04:34N 30°06' W 093°18'0 0.0
2017-Mar-20 03:34N 30°06' W 093°18'0 0.0
2017-Mar-20 02:34N 30°06' W 093°18'0 0.1
2017-Mar-20 01:34N 30°06' W 093°18'0 0.0
2017-Mar-20 00:34N 30°06' W 093°18'0 0.0
2017-Mar-19 23:34N 30°06' W 093°18'2 2.3
2017-Mar-19 22:33N 30°05' W 093°20'0 0.0
2017-Mar-19 21:34N 30°05' W 093°20'0 0.0
2017-Mar-19 20:33N 30°05' W 093°20'0 0.0
2017-Mar-19 19:34N 30°05' W 093°20'0 0.0
2017-Mar-19 18:34N 30°05' W 093°20'0 0.0
2017-Mar-19 17:34N 30°05' W 093°20'0 0.0
2017-Mar-19 16:34N 30°05' W 093°20'0 0.0
2017-Mar-19 15:34N 30°05' W 093°20'0 0.0
2017-Mar-19 14:33N 30°05' W 093°20'0 0.0
2017-Mar-19 13:34N 30°05' W 093°20'0 0.0
2017-Mar-19 12:34N 30°05' W 093°20'0 0.0
2017-Mar-19 11:34N 30°05' W 093°20'0 0.0
2017-Mar-19 10:33N 30°05' W 093°20'0 0.0
2017-Mar-19 09:33N 30°05' W 093°20'0 0.0
2017-Mar-19 08:33N 30°05' W 093°20'0 0.0
2017-Mar-19 07:34N 30°05' W 093°20'0 0.0
2017-Mar-19 06:33N 30°05' W 093°20'0 0.0
2017-Mar-19 05:33N 30°05' W 093°20'0 0.0
2017-Mar-19 04:33N 30°05' W 093°20'0 0.0
2017-Mar-19 03:33N 30°05' W 093°20'6 6.3
2017-Mar-19 02:33N 30°11' W 093°19'2 1.7
2017-Mar-19 01:33N 30°09' W 093°20'5 4.7
2017-Mar-19 00:33N 30°05' W 093°20'0 0.0
2017-Mar-18 23:34N 30°05' W 093°20'0 0.0
2017-Mar-18 22:34N 30°05' W 093°20'0 0.0
2017-Mar-18 21:33N 30°05' W 093°20'0 0.0
2017-Mar-18 20:33N 30°05' W 093°20'0 0.0
2017-Mar-18 19:33N 30°05' W 093°20'0 0.0
2017-Mar-18 18:34N 30°05' W 093°20'0 0.0
2017-Mar-18 17:33N 30°05' W 093°20'0 0.0
2017-Mar-18 16:33N 30°05' W 093°20'0 0.0
2017-Mar-18 15:33N 30°05' W 093°20'0 0.0
2017-Mar-18 14:33N 30°05' W 093°20'0 0.0
2017-Mar-18 13:33N 30°05' W 093°20'0 0.0
2017-Mar-18 12:33N 30°05' W 093°20'0 0.0
2017-Mar-18 11:34N 30°05' W 093°20'0 0.0
2017-Mar-18 10:33N 30°05' W 093°20'0 0.0
2017-Mar-18 09:33N 30°05' W 093°20'0 0.0
2017-Mar-18 08:33N 30°05' W 093°20'0 0.0
2017-Mar-18 07:33N 30°05' W 093°20'0 0.0
2017-Mar-18 06:33N 30°05' W 093°20'0 0.0
2017-Mar-18 05:33N 30°05' W 093°20'0 0.0
2017-Mar-18 04:33N 30°05' W 093°20'0 0.0
2017-Mar-18 03:33N 30°05' W 093°20'0 0.0
2017-Mar-18 02:33N 30°05' W 093°20'0 0.0
2017-Mar-18 01:33N 30°05' W 093°20'0 0.0
2017-Mar-18 00:33N 30°05' W 093°20'2 2.2
2017-Mar-17 23:33N 30°06' W 093°18'0 0.0
2017-Mar-17 22:33N 30°06' W 093°18'2 2.2
2017-Mar-17 21:33N 30°05' W 093°20'0 0.4
2017-Mar-17 20:34N 30°05' W 093°20'0 0.4
2017-Mar-17 19:33N 30°05' W 093°20'0 0.0
2017-Mar-17 18:33N 30°05' W 093°20'0 0.0
2017-Mar-17 17:33N 30°05' W 093°20'0 0.0
2017-Mar-17 16:33N 30°05' W 093°20'0 0.0
2017-Mar-17 15:33N 30°05' W 093°20'0 0.0
2017-Mar-17 14:34N 30°05' W 093°20'0 0.0
2017-Mar-17 13:34N 30°05' W 093°20'0 0.0
2017-Mar-17 12:34N 30°05' W 093°20'0 0.0
2017-Mar-17 11:33N 30°05' W 093°20'0 0.0
2017-Mar-17 10:33N 30°05' W 093°20'1 1.1
2017-Mar-17 09:33N 30°06' W 093°19'1 1.1
2017-Mar-17 08:33N 30°05' W 093°20'0 0.0
2017-Mar-17 07:34N 30°05' W 093°20'0 0.0
2017-Mar-17 06:33N 30°05' W 093°20'0 0.0
2017-Mar-17 05:33N 30°05' W 093°20'0 0.0
2017-Mar-17 04:33N 30°05' W 093°20'0 0.0
2017-Mar-17 03:33N 30°05' W 093°20'0 0.0
2017-Mar-17 02:33N 30°05' W 093°20'0 0.5
2017-Mar-17 01:33N 30°05' W 093°20'2 2.5
2017-Mar-17 00:33N 30°06' W 093°17'  
Track history (hours):
 
Tides and Currents Weather Stations Pressure Air Temp Water Temp Dewpoint Dewpoint Depression Visibility Wind Speed Wind Dir Waves Ship Positions

Sid Moller

Owner: Genesis Marine, LLC, Houston, TX. More information available from US FCC via Universal Licensing System and Coast Guard Vessel Documentation Center.

Last reported at 2017-Mar-27 00:24 UTC. Time now 2017-Mar-27 00:42 UTC.
Position N 29°44' W 095°03'.

Length 26 m; draft 3 m.

Type: Ship (hazmat cat A). MMSI: 367504980.

Date/timePositionNaut miles runAvg speedWind from/ knotsBaromVisibWave heightAir tempDewpointWater temp
2017-Mar-27 00:24N 29°44' W 095°03'0 0.0
2017-Mar-26 21:33N 29°44' W 095°03'0 0.0
2017-Mar-26 20:30N 29°44' W 095°03'0 0.0
2017-Mar-26 19:31N 29°44' W 095°03'0 0.0
2017-Mar-26 18:31N 29°44' W 095°03'0 0.0
2017-Mar-26 17:28N 29°44' W 095°03'0 0.0
2017-Mar-26 16:31N 29°44' W 095°03'0 0.0
2017-Mar-26 15:24N 29°44' W 095°03'0 0.0
2017-Mar-26 14:21N 29°44' W 095°03'0 0.0
2017-Mar-26 13:30N 29°44' W 095°03'0 0.0
2017-Mar-26 11:19N 29°44' W 095°03'0 0.5
2017-Mar-26 10:32N 29°44' W 095°03'3 3.5
2017-Mar-26 09:33N 29°42' W 094°60'5 5.0
2017-Mar-26 08:34N 29°37' W 094°57'5 5.1
2017-Mar-26 07:34N 29°33' W 094°54'5 5.0
2017-Mar-26 06:34N 29°29' W 094°51'  
2017-Mar-22 05:15N 30°04' W 093°41'2 2.5
2017-Mar-22 04:32N 30°04' W 093°39'4 4.3
2017-Mar-22 03:33N 30°04' W 093°34'4 4.0
2017-Mar-22 02:34N 30°04' W 093°29'4 4.1
2017-Mar-22 01:33N 30°04' W 093°25'4 3.7
2017-Mar-22 00:34N 30°04' W 093°21'1 0.7
2017-Mar-21 23:34N 30°05' W 093°20'0 0.1
2017-Mar-21 22:34N 30°05' W 093°20'0 0.0
2017-Mar-21 21:34N 30°05' W 093°20'0 0.0
2017-Mar-21 20:34N 30°05' W 093°20'0 0.0
2017-Mar-21 19:34N 30°05' W 093°20'0 0.0
2017-Mar-21 18:34N 30°05' W 093°20'0 0.0
2017-Mar-21 17:34N 30°05' W 093°20'0 0.0
2017-Mar-21 16:34N 30°05' W 093°20'0 0.0
2017-Mar-21 15:34N 30°05' W 093°20'0 0.0
2017-Mar-21 14:34N 30°05' W 093°20'0 0.0
2017-Mar-21 13:33N 30°05' W 093°20'0 0.0
2017-Mar-21 12:34N 30°05' W 093°20'0 0.0
2017-Mar-21 11:33N 30°05' W 093°20'0 0.0
2017-Mar-21 10:34N 30°05' W 093°20'0 0.0
2017-Mar-21 09:34N 30°05' W 093°20'0 0.0
2017-Mar-21 08:33N 30°05' W 093°20'0 0.0
2017-Mar-21 07:34N 30°05' W 093°20'0 0.0
2017-Mar-21 06:34N 30°05' W 093°20'0 0.0
2017-Mar-21 05:34N 30°05' W 093°20'0 0.0
2017-Mar-21 04:34N 30°05' W 093°20'0 0.0
2017-Mar-21 03:34N 30°05' W 093°20'0 0.0
2017-Mar-21 02:34N 30°05' W 093°20'0 0.0
2017-Mar-21 01:34N 30°05' W 093°20'0 0.0
2017-Mar-21 00:34N 30°05' W 093°20'0 0.0
2017-Mar-20 23:33N 30°05' W 093°20'0 0.0
2017-Mar-20 22:34N 30°05' W 093°20'1 1.4
2017-Mar-20 21:33N 30°06' W 093°20'4 3.6
2017-Mar-20 20:34N 30°10' W 093°19'2 2.1
2017-Mar-20 19:34N 30°08' W 093°20'3 2.9
2017-Mar-20 18:34N 30°05' W 093°20'0 0.1
2017-Mar-20 17:34N 30°05' W 093°20'0 0.0
2017-Mar-20 16:34N 30°05' W 093°20'0 0.0
2017-Mar-20 15:34N 30°05' W 093°20'0 0.0
2017-Mar-20 14:34N 30°05' W 093°20'0 0.0
2017-Mar-20 13:34N 30°05' W 093°20'0 0.0
2017-Mar-20 12:34N 30°05' W 093°20'0 0.0
2017-Mar-20 11:33N 30°05' W 093°20'0 0.0
2017-Mar-20 10:34N 30°05' W 093°20'0 0.0
2017-Mar-20 09:33N 30°05' W 093°20'0 0.0
2017-Mar-20 08:34N 30°05' W 093°20'0 0.0
2017-Mar-20 07:34N 30°05' W 093°20'0 0.0
2017-Mar-20 06:34N 30°05' W 093°20'0 0.0
2017-Mar-20 05:33N 30°05' W 093°20'2 2.2
2017-Mar-20 04:34N 30°06' W 093°18'0 0.0
2017-Mar-20 03:34N 30°06' W 093°18'0 0.0
2017-Mar-20 02:34N 30°06' W 093°18'0 0.1
2017-Mar-20 01:34N 30°06' W 093°18'0 0.0
2017-Mar-20 00:34N 30°06' W 093°18'0 0.0
2017-Mar-19 23:34N 30°06' W 093°18'2 2.3
2017-Mar-19 22:33N 30°05' W 093°20'0 0.0
2017-Mar-19 21:34N 30°05' W 093°20'0 0.0
2017-Mar-19 20:33N 30°05' W 093°20'0 0.0
2017-Mar-19 19:34N 30°05' W 093°20'0 0.0
2017-Mar-19 18:34N 30°05' W 093°20'0 0.0
2017-Mar-19 17:34N 30°05' W 093°20'0 0.0
2017-Mar-19 16:34N 30°05' W 093°20'0 0.0
2017-Mar-19 15:34N 30°05' W 093°20'0 0.0
2017-Mar-19 14:33N 30°05' W 093°20'0 0.0
2017-Mar-19 13:34N 30°05' W 093°20'0 0.0
2017-Mar-19 12:34N 30°05' W 093°20'0 0.0
2017-Mar-19 11:34N 30°05' W 093°20'0 0.0
2017-Mar-19 10:33N 30°05' W 093°20'0 0.0
2017-Mar-19 09:33N 30°05' W 093°20'0 0.0
2017-Mar-19 08:33N 30°05' W 093°20'0 0.0
2017-Mar-19 07:34N 30°05' W 093°20'0 0.0
2017-Mar-19 06:33N 30°05' W 093°20'0 0.0
2017-Mar-19 05:33N 30°05' W 093°20'0 0.0
2017-Mar-19 04:33N 30°05' W 093°20'0 0.0
2017-Mar-19 03:33N 30°05' W 093°20'6 6.3
2017-Mar-19 02:33N 30°11' W 093°19'2 1.7
2017-Mar-19 01:33N 30°09' W 093°20'5 4.7
2017-Mar-19 00:33N 30°05' W 093°20'0 0.0
2017-Mar-18 23:34N 30°05' W 093°20'0 0.0
2017-Mar-18 22:34N 30°05' W 093°20'0 0.0
2017-Mar-18 21:33N 30°05' W 093°20'0 0.0
2017-Mar-18 20:33N 30°05' W 093°20'0 0.0
2017-Mar-18 19:33N 30°05' W 093°20'0 0.0
2017-Mar-18 18:34N 30°05' W 093°20'0 0.0
2017-Mar-18 17:33N 30°05' W 093°20'0 0.0
2017-Mar-18 16:33N 30°05' W 093°20'0 0.0
2017-Mar-18 15:33N 30°05' W 093°20'0 0.0
2017-Mar-18 14:33N 30°05' W 093°20'0 0.0
2017-Mar-18 13:33N 30°05' W 093°20'0 0.0
2017-Mar-18 12:33N 30°05' W 093°20'0 0.0
2017-Mar-18 11:34N 30°05' W 093°20'0 0.0
2017-Mar-18 10:33N 30°05' W 093°20'0 0.0
2017-Mar-18 09:33N 30°05' W 093°20'0 0.0
2017-Mar-18 08:33N 30°05' W 093°20'0 0.0
2017-Mar-18 07:33N 30°05' W 093°20'0 0.0
2017-Mar-18 06:33N 30°05' W 093°20'0 0.0
2017-Mar-18 05:33N 30°05' W 093°20'0 0.0
2017-Mar-18 04:33N 30°05' W 093°20'0 0.0
2017-Mar-18 03:33N 30°05' W 093°20'0 0.0
2017-Mar-18 02:33N 30°05' W 093°20'0 0.0
2017-Mar-18 01:33N 30°05' W 093°20'0 0.0
2017-Mar-18 00:33N 30°05' W 093°20'2 2.2
2017-Mar-17 23:33N 30°06' W 093°18'0 0.0
2017-Mar-17 22:33N 30°06' W 093°18'2 2.2
2017-Mar-17 21:33N 30°05' W 093°20'0 0.4
2017-Mar-17 20:34N 30°05' W 093°20'0 0.4
2017-Mar-17 19:33N 30°05' W 093°20'0 0.0
2017-Mar-17 18:33N 30°05' W 093°20'0 0.0
2017-Mar-17 17:33N 30°05' W 093°20'0 0.0
2017-Mar-17 16:33N 30°05' W 093°20'0 0.0
2017-Mar-17 15:33N 30°05' W 093°20'0 0.0
2017-Mar-17 14:34N 30°05' W 093°20'0 0.0
2017-Mar-17 13:34N 30°05' W 093°20'0 0.0
2017-Mar-17 12:34N 30°05' W 093°20'0 0.0
2017-Mar-17 11:33N 30°05' W 093°20'0 0.0
2017-Mar-17 10:33N 30°05' W 093°20'1 1.1
2017-Mar-17 09:33N 30°06' W 093°19'1 1.1
2017-Mar-17 08:33N 30°05' W 093°20'0 0.0
2017-Mar-17 07:34N 30°05' W 093°20'0 0.0
2017-Mar-17 06:33N 30°05' W 093°20'0 0.0
2017-Mar-17 05:33N 30°05' W 093°20'0 0.0
2017-Mar-17 04:33N 30°05' W 093°20'0 0.0
2017-Mar-17 03:33N 30°05' W 093°20'0 0.0
2017-Mar-17 02:33N 30°05' W 093°20'0 0.5
2017-Mar-17 01:33N 30°05' W 093°20'2 2.5
2017-Mar-17 00:33N 30°06' W 093°17'  

Dump ship's entire track history